createdAt,value
2023-08-07T00:01:18.572Z,58.29
2023-08-07T00:04:20.694Z,57.53
2023-08-07T00:07:22.832Z,58.84
2023-08-07T00:10:25.714Z,58.90
2023-08-07T00:13:27.906Z,58.85
2023-08-07T00:16:30.056Z,57.35
2023-08-07T00:19:32.166Z,58.30
2023-08-07T00:22:34.333Z,59.12
2023-08-07T00:25:36.428Z,57.91
2023-08-07T00:28:38.579Z,58.29
2023-08-07T00:31:40.809Z,58.66
2023-08-07T00:34:42.974Z,58.07
2023-08-07T00:37:45.362Z,57.31
2023-08-07T00:40:47.588Z,57.49
2023-08-07T00:43:49.781Z,58.46
2023-08-07T00:46:52.750Z,56.30
2023-08-07T00:49:54.821Z,57.85
2023-08-07T00:52:57.045Z,57.03
2023-08-07T00:55:59.335Z,57.87
2023-08-07T00:59:02.065Z,58.01
2023-08-07T01:02:04.595Z,59.11
2023-08-07T01:05:06.840Z,57.27
2023-08-07T01:08:09.250Z,58.08
2023-08-07T01:11:23.658Z,58.36
2023-08-07T01:14:46.082Z,58.72
2023-08-07T01:17:49.102Z,58.06
2023-08-07T01:20:51.264Z,57.36
2023-08-07T01:23:53.315Z,58.26
2023-08-07T01:26:57.106Z,58.50
2023-08-07T01:30:10.911Z,56.92
2023-08-07T01:33:40.707Z,56.91
2023-08-07T01:36:43.198Z,57.13
2023-08-07T01:39:46.196Z,57.47
2023-08-07T01:42:48.568Z,58.01
2023-08-07T01:45:50.670Z,57.18
2023-08-07T01:48:52.756Z,57.19
2023-08-07T01:51:54.853Z,56.29
2023-08-07T01:54:57.109Z,55.07
2023-08-07T01:57:59.300Z,57.68
2023-08-07T02:01:01.611Z,57.04
2023-08-07T02:04:03.902Z,58.06
2023-08-07T02:07:06.119Z,57.91
2023-08-07T02:10:08.955Z,57.64
2023-08-07T02:13:11.083Z,57.92
2023-08-07T02:16:15.765Z,58.61
2023-08-07T02:19:18.008Z,57.99
2023-08-07T02:22:20.556Z,58.85
2023-08-07T02:25:22.728Z,57.28
2023-08-07T02:28:24.928Z,55.66
2023-08-07T02:31:27.206Z,56.42
2023-08-07T02:34:29.962Z,57.10
2023-08-07T02:37:32.048Z,55.97
2023-08-07T02:40:34.254Z,58.13
2023-08-07T02:43:36.592Z,57.04
2023-08-07T02:46:38.830Z,56.74
2023-08-07T02:49:41.079Z,56.05
2023-08-07T02:52:45.752Z,55.09
2023-08-07T02:55:48.171Z,55.82
2023-08-07T02:58:50.314Z,56.32
2023-08-07T03:01:52.529Z,56.41
2023-08-07T03:04:54.944Z,56.38
2023-08-07T03:07:57.124Z,56.22
2023-08-07T03:10:59.405Z,55.70
2023-08-07T03:14:01.709Z,57.55
2023-08-07T03:17:03.977Z,56.79
2023-08-07T03:20:06.637Z,55.99
2023-08-07T03:23:08.730Z,58.48
2023-08-07T03:26:19.047Z,57.32
2023-08-07T03:29:22.106Z,56.28
2023-08-07T03:32:24.468Z,56.73
2023-08-07T03:35:26.632Z,57.41
2023-08-07T03:38:28.778Z,56.84
2023-08-07T03:41:31.008Z,57.57
2023-08-07T03:44:34.377Z,57.89
2023-08-07T03:47:36.701Z,57.10
2023-08-07T03:50:38.866Z,57.20
2023-08-07T03:53:41.208Z,58.07
2023-08-07T03:56:43.341Z,57.45
2023-08-07T03:59:45.413Z,57.66
2023-08-07T04:02:47.656Z,58.28
2023-08-07T04:05:53.535Z,57.91
2023-08-07T04:08:55.804Z,58.05
2023-08-07T04:11:57.904Z,57.16
2023-08-07T04:15:00.068Z,58.94
2023-08-07T04:18:02.306Z,58.63
2023-08-07T04:21:04.891Z,56.92
2023-08-07T04:24:11.577Z,57.70
2023-08-07T04:27:13.862Z,57.67
2023-08-07T04:30:16.058Z,56.44
2023-08-07T04:33:18.422Z,57.79
2023-08-07T04:36:22.226Z,55.99
2023-08-07T04:39:24.319Z,55.37
2023-08-07T04:42:26.412Z,54.75
2023-08-07T04:45:28.583Z,55.65
2023-08-07T04:48:30.731Z,55.33
2023-08-07T04:51:34.925Z,53.80
2023-08-07T04:54:37.163Z,53.64
2023-08-07T04:57:39.264Z,53.90
2023-08-07T05:00:41.583Z,51.50
2023-08-07T05:03:43.856Z,52.00
2023-08-07T05:06:46.363Z,51.16
2023-08-07T05:09:50.804Z,50.91
2023-08-07T05:12:58.775Z,49.53
2023-08-07T05:16:01.209Z,49.44
2023-08-07T05:19:03.472Z,46.96
2023-08-07T05:22:05.665Z,46.16
2023-08-07T05:25:08.137Z,47.06
2023-08-07T05:28:10.316Z,45.07
2023-08-07T05:31:12.490Z,45.97
2023-08-07T05:34:14.772Z,44.46
2023-08-07T05:37:16.927Z,44.54
2023-08-07T05:40:19.388Z,43.83
2023-08-07T05:43:21.672Z,42.76
2023-08-07T05:46:23.840Z,42.76
2023-08-07T05:49:26.720Z,45.34
2023-08-07T05:52:29.082Z,47.24
2023-08-07T05:55:33.723Z,46.95
2023-08-07T05:58:36.276Z,47.11
2023-08-07T06:01:38.687Z,47.57
2023-08-07T06:04:42.152Z,47.84
2023-08-07T06:07:44.530Z,48.98
2023-08-07T06:10:46.794Z,47.79
2023-08-07T06:13:50.146Z,47.77
2023-08-07T06:16:53.222Z,47.39
2023-08-07T06:19:55.340Z,47.00
2023-08-07T06:22:57.560Z,45.45
2023-08-07T06:25:59.947Z,44.76
2023-08-07T06:29:02.236Z,46.05
2023-08-07T06:32:07.677Z,44.82
2023-08-07T06:35:10.383Z,45.04
2023-08-07T06:38:15.484Z,44.92
2023-08-07T06:41:17.793Z,46.22
2023-08-07T06:44:19.937Z,46.82
2023-08-07T06:47:22.135Z,46.47
2023-08-07T06:50:25.428Z,47.84
2023-08-07T06:53:27.646Z,47.18
2023-08-07T06:56:30.638Z,47.19
2023-08-07T06:59:33.136Z,47.95
2023-08-07T07:02:37.466Z,46.07
2023-08-07T07:05:40.148Z,46.36
2023-08-07T07:08:42.579Z,44.94
2023-08-07T07:11:45.054Z,46.22
2023-08-07T07:14:47.202Z,46.36
2023-08-07T07:17:49.558Z,44.40
2023-08-07T07:21:01.746Z,45.28
2023-08-07T07:24:04.315Z,45.14
2023-08-07T07:27:06.981Z,45.51
2023-08-07T07:30:09.588Z,45.54
2023-08-07T07:33:12.115Z,43.70
2023-08-07T07:36:18.986Z,43.75
2023-08-07T07:39:22.085Z,43.17
2023-08-07T07:42:24.271Z,43.65
2023-08-07T07:45:26.447Z,43.00
2023-08-07T07:48:31.084Z,42.24
2023-08-07T07:51:33.358Z,41.68
2023-08-07T07:54:36.389Z,38.80
2023-08-07T07:57:38.809Z,39.44
2023-08-07T08:00:40.897Z,36.73
2023-08-07T08:03:44.767Z,35.94
2023-08-07T08:06:49.363Z,37.79
2023-08-07T08:09:52.041Z,38.58
2023-08-07T08:12:57.336Z,40.88
2023-08-07T08:15:59.727Z,39.27
2023-08-07T08:19:02.184Z,38.81
2023-08-07T08:22:04.689Z,40.44
2023-08-07T08:25:07.930Z,41.18
2023-08-07T08:28:10.086Z,40.55
2023-08-07T08:31:12.316Z,41.56
2023-08-07T08:34:14.506Z,41.30
2023-08-07T08:37:16.771Z,42.08
2023-08-07T08:40:20.629Z,43.71
2023-08-07T08:43:22.786Z,40.83
2023-08-07T08:46:25.786Z,41.19
2023-08-07T08:49:33.983Z,40.12
2023-08-07T08:52:38.985Z,41.41
2023-08-07T08:55:44.068Z,41.92
2023-08-07T08:58:46.668Z,40.93
2023-08-07T09:01:50.601Z,42.77
2023-08-07T09:04:52.697Z,43.38
2023-08-07T09:07:55.133Z,41.76
2023-08-07T09:10:57.489Z,41.34
2023-08-07T09:14:01.726Z,40.96
2023-08-07T09:17:04.794Z,41.59
2023-08-07T09:20:14.535Z,40.83
2023-08-07T09:23:20.578Z,41.18
2023-08-07T09:26:27.130Z,40.51
2023-08-07T09:29:29.738Z,39.16
2023-08-07T09:32:31.864Z,36.93
2023-08-07T09:35:35.036Z,38.24
2023-08-07T09:38:37.334Z,37.44
2023-08-07T09:41:41.992Z,36.99
2023-08-07T09:44:46.323Z,35.45
2023-08-07T09:47:49.271Z,34.70
2023-08-07T09:50:51.848Z,33.90
2023-08-07T09:53:54.128Z,35.53
2023-08-07T09:56:59.097Z,37.88
2023-08-07T10:00:01.906Z,38.52
2023-08-07T10:03:04.682Z,38.05
2023-08-07T10:06:07.489Z,39.20
2023-08-07T10:09:10.264Z,40.72
2023-08-07T10:12:12.881Z,37.61
2023-08-07T10:15:15.813Z,36.63
2023-08-07T10:18:17.996Z,36.65
2023-08-07T10:21:20.761Z,37.63
2023-08-07T10:24:24.277Z,38.24
2023-08-07T10:27:27.462Z,37.29
2023-08-07T10:30:30.980Z,37.36
2023-08-07T10:33:33.524Z,40.20
2023-08-07T10:36:37.102Z,38.60
2023-08-07T10:40:03.565Z,36.98
2023-08-07T10:43:08.753Z,39.03
2023-08-07T10:46:13.720Z,38.80
2023-08-07T10:49:33.477Z,39.10
2023-08-07T10:52:42.665Z,41.05
2023-08-07T10:55:46.698Z,41.27
2023-08-07T10:58:54.303Z,40.50
2023-08-07T11:01:56.839Z,40.65
2023-08-07T11:04:59.158Z,42.12
2023-08-07T11:08:04.024Z,42.85
2023-08-07T11:11:07.293Z,42.51
2023-08-07T11:14:20.144Z,43.59
2023-08-07T11:17:22.823Z,44.06
2023-08-07T11:20:26.729Z,44.88
2023-08-07T11:23:29.505Z,45.21
2023-08-07T11:26:31.481Z,40.86
2023-08-07T11:29:34.582Z,40.63
2023-08-07T11:32:37.774Z,38.65
2023-08-07T11:35:43.569Z,40.31
2023-08-07T11:38:46.038Z,37.90
2023-08-07T11:41:48.498Z,36.64
2023-08-07T11:44:50.750Z,35.52
2023-08-07T11:47:57.022Z,38.29
2023-08-07T11:51:00.638Z,37.79
2023-08-07T11:54:03.970Z,36.82
2023-08-07T11:57:18.768Z,38.83
2023-08-07T12:00:21.557Z,38.61
2023-08-07T12:03:32.209Z,41.25
2023-08-07T12:06:35.547Z,42.05
2023-08-07T12:09:38.328Z,43.50
2023-08-07T12:12:40.726Z,41.53
2023-08-07T12:15:43.708Z,41.55
2023-08-07T12:18:52.935Z,41.13
2023-08-07T12:21:55.090Z,37.82
2023-08-07T12:24:57.204Z,37.46
2023-08-07T12:27:59.550Z,36.48
2023-08-07T12:31:01.813Z,35.82
2023-08-07T12:37:15.120Z,40.01
2023-08-07T12:43:33.011Z,39.79
2023-08-07T12:46:39.868Z,42.23
2023-08-07T12:49:42.888Z,43.36
2023-08-07T12:52:45.490Z,43.68
2023-08-07T12:55:50.837Z,44.61
2023-08-07T12:58:53.337Z,44.91
2023-08-07T13:01:55.766Z,44.61
2023-08-07T13:04:58.569Z,46.17
2023-08-07T13:08:02.436Z,46.84
2023-08-07T13:11:06.157Z,46.96
2023-08-07T13:14:08.378Z,47.32
2023-08-07T13:17:10.555Z,47.79
2023-08-07T13:20:15.001Z,47.55
2023-08-07T13:23:17.662Z,46.37
2023-08-07T13:26:19.860Z,46.45
2023-08-07T13:29:22.987Z,47.07
2023-08-07T13:32:26.638Z,46.76
2023-08-07T13:35:28.830Z,47.98
2023-08-07T13:38:31.056Z,47.07
2023-08-07T13:41:33.768Z,48.56
2023-08-07T13:44:36.263Z,48.59
2023-08-07T13:47:38.909Z,48.03
2023-08-07T13:50:42.160Z,48.38
2023-08-07T13:53:44.908Z,48.85
2023-08-07T13:56:47.273Z,50.45
2023-08-07T13:59:50.658Z,48.56
2023-08-07T14:02:54.081Z,48.86
2023-08-07T14:05:56.394Z,49.60
2023-08-07T14:09:00.959Z,48.12
2023-08-07T14:12:03.324Z,49.50
2023-08-07T14:15:06.491Z,49.42
2023-08-07T14:18:09.046Z,49.50
2023-08-07T14:21:11.351Z,50.02
2023-08-07T14:24:15.981Z,48.97
2023-08-07T14:27:18.504Z,50.39
2023-08-07T14:30:23.310Z,51.20
2023-08-07T14:33:25.498Z,52.03
2023-08-07T14:36:27.796Z,51.79
2023-08-07T14:39:30.039Z,51.84
2023-08-07T14:42:32.244Z,52.43
2023-08-07T14:45:34.518Z,53.25
2023-08-07T14:48:37.065Z,52.09
2023-08-07T14:51:39.476Z,51.99
2023-08-07T14:54:41.710Z,52.57
2023-08-07T14:57:43.964Z,52.83
2023-08-07T15:00:46.706Z,54.81
2023-08-07T15:03:48.980Z,55.21
2023-08-07T15:06:51.716Z,55.37
2023-08-07T15:09:54.027Z,55.23
2023-08-07T15:12:57.221Z,53.95
2023-08-07T15:15:59.686Z,56.38
2023-08-07T15:19:04.028Z,55.01
2023-08-07T15:22:06.483Z,56.03
2023-08-07T15:25:09.589Z,57.42
2023-08-07T15:28:11.636Z,57.28
2023-08-07T15:31:13.700Z,58.20
2023-08-07T15:34:15.800Z,58.65
2023-08-07T15:37:18.072Z,58.92
2023-08-07T15:40:20.608Z,57.75
2023-08-07T15:43:23.200Z,56.95
2023-08-07T15:46:25.736Z,57.39
2023-08-07T15:49:27.990Z,55.86
2023-08-07T15:52:30.249Z,56.23
2023-08-07T15:55:36.378Z,57.15
2023-08-07T15:58:38.578Z,54.89
2023-08-07T16:01:40.942Z,57.11
2023-08-07T16:04:46.543Z,56.73
2023-08-07T16:07:50.884Z,58.07
2023-08-07T16:10:53.917Z,56.84
2023-08-07T16:13:56.093Z,58.11
2023-08-07T16:16:59.303Z,56.81
2023-08-07T16:20:01.586Z,58.48
2023-08-07T16:23:04.036Z,56.81
2023-08-07T16:26:07.018Z,57.44
2023-08-07T16:29:09.181Z,56.05
2023-08-07T16:32:11.487Z,55.16
2023-08-07T16:35:14.998Z,55.62
2023-08-07T16:38:17.101Z,56.63
2023-08-07T16:41:19.216Z,56.60
2023-08-07T16:44:21.571Z,56.51
2023-08-07T16:47:23.978Z,56.12
2023-08-07T16:50:28.165Z,55.65
2023-08-07T16:53:30.536Z,55.08
2023-08-07T16:56:32.698Z,55.63
2023-08-07T16:59:34.902Z,55.14
2023-08-07T17:02:37.649Z,54.86
2023-08-07T17:05:40.033Z,56.46
2023-08-07T17:08:42.327Z,58.50
2023-08-07T17:11:44.518Z,57.29
2023-08-07T17:14:46.833Z,58.21
2023-08-07T17:17:49.591Z,56.17
2023-08-07T17:20:51.797Z,56.82
2023-08-07T17:23:53.922Z,57.62
2023-08-07T17:26:56.714Z,54.98
2023-08-07T17:29:59.197Z,54.68
2023-08-07T17:33:01.461Z,54.16
2023-08-07T17:36:03.734Z,55.52
2023-08-07T17:39:06.028Z,56.38
2023-08-07T17:42:08.627Z,55.26
2023-08-07T17:45:13.304Z,57.24
2023-08-07T17:48:15.814Z,57.03
2023-08-07T17:51:18.017Z,57.96
2023-08-07T17:54:20.271Z,58.95
2023-08-07T17:57:22.379Z,59.44
2023-08-07T18:00:24.882Z,58.74
2023-08-07T18:03:27.022Z,58.96
2023-08-07T18:06:29.896Z,58.94
2023-08-07T18:09:31.985Z,59.83
2023-08-07T18:12:34.070Z,58.99
2023-08-07T18:15:36.220Z,59.05
2023-08-07T18:18:38.409Z,57.63
2023-08-07T18:21:40.526Z,58.55
2023-08-07T18:24:43.735Z,59.70
2023-08-07T18:27:45.909Z,58.54
2023-08-07T18:30:48.077Z,59.53
2023-08-07T18:33:50.403Z,59.75
2023-08-07T18:36:52.849Z,60.24
2023-08-07T18:39:55.041Z,60.19
2023-08-07T18:42:57.222Z,58.40
2023-08-07T18:45:59.332Z,60.40
2023-08-07T18:49:01.733Z,59.46
2023-08-07T18:52:05.512Z,59.01
2023-08-07T18:55:08.674Z,60.32
2023-08-07T18:58:10.877Z,60.32
2023-08-07T19:01:13.132Z,58.33
2023-08-07T19:04:16.903Z,58.88
2023-08-07T19:07:19.126Z,58.65
2023-08-07T19:10:21.451Z,57.65
2023-08-07T19:13:23.556Z,57.93
2023-08-07T19:16:25.824Z,58.81
2023-08-07T19:19:28.129Z,59.51
2023-08-07T19:22:31.648Z,57.63
2023-08-07T19:25:33.925Z,54.68
2023-08-07T19:28:36.157Z,57.77
2023-08-07T19:31:38.377Z,58.35
2023-08-07T19:34:40.536Z,58.66
2023-08-07T19:37:43.003Z,56.78
2023-08-07T19:40:45.270Z,57.00
2023-08-07T19:43:49.141Z,58.06
2023-08-07T19:46:51.317Z,56.49
2023-08-07T19:49:53.446Z,57.10
2023-08-07T19:52:55.968Z,56.52
2023-08-07T19:55:58.138Z,57.90
2023-08-07T19:59:01.551Z,57.72
2023-08-07T20:02:05.713Z,57.56
2023-08-07T20:05:08.271Z,57.21
2023-08-07T20:08:11.194Z,58.40
2023-08-07T20:11:13.457Z,58.25
2023-08-07T20:14:15.619Z,57.81
2023-08-07T20:17:17.965Z,57.50
2023-08-07T20:20:21.371Z,56.86
2023-08-07T20:23:24.114Z,57.57
2023-08-07T20:26:26.297Z,56.13
2023-08-07T20:29:28.768Z,56.72
2023-08-07T20:32:31.222Z,57.05
2023-08-07T20:35:33.401Z,56.78
2023-08-07T20:38:35.801Z,58.10
2023-08-07T20:41:38.143Z,56.44
2023-08-07T20:44:40.317Z,57.98
2023-08-07T20:47:42.949Z,57.09
2023-08-07T20:50:45.143Z,56.98
2023-08-07T20:53:47.738Z,57.93
2023-08-07T20:56:50.046Z,58.55
2023-08-07T20:59:52.217Z,57.35
2023-08-07T21:02:54.352Z,56.61
2023-08-07T21:05:56.559Z,56.55
2023-08-07T21:08:58.657Z,56.41
2023-08-07T21:12:01.151Z,56.40
2023-08-07T21:15:05.505Z,56.78
2023-08-07T21:18:07.675Z,57.40
2023-08-07T21:21:09.934Z,57.91
2023-08-07T21:24:14.551Z,59.35
2023-08-07T21:27:18.179Z,56.92
2023-08-07T21:30:20.321Z,58.19
2023-08-07T21:33:24.550Z,58.51
2023-08-07T21:36:26.809Z,57.01
2023-08-07T21:39:29.068Z,57.11
2023-08-07T21:42:31.678Z,58.53
2023-08-07T21:45:34.061Z,57.46
2023-08-07T21:48:36.326Z,58.14
2023-08-07T21:51:38.433Z,56.70
2023-08-07T21:54:40.637Z,57.01
2023-08-07T21:57:42.798Z,57.02
2023-08-07T22:00:47.722Z,57.68
2023-08-07T22:03:49.883Z,56.37
2023-08-07T22:06:52.080Z,57.80
2023-08-07T22:09:54.209Z,56.83
2023-08-07T22:12:56.430Z,56.06
2023-08-07T22:15:58.698Z,57.79
2023-08-07T22:19:00.847Z,59.59
2023-08-07T22:22:03.131Z,57.48
2023-08-07T22:25:06.297Z,58.21
2023-08-07T22:28:09.160Z,57.47
2023-08-07T22:31:11.383Z,57.36
2023-08-07T22:34:13.484Z,57.67
2023-08-07T22:37:15.593Z,59.43
2023-08-07T22:40:17.764Z,57.19
2023-08-07T22:43:19.911Z,58.94
2023-08-07T22:46:22.151Z,58.37
2023-08-07T22:49:24.250Z,59.15
2023-08-07T22:52:26.390Z,59.48
2023-08-07T22:55:28.599Z,58.67
2023-08-07T22:58:30.720Z,58.60
2023-08-07T23:01:32.942Z,57.25
2023-08-07T23:04:35.097Z,58.47
2023-08-07T23:07:37.757Z,57.61
2023-08-07T23:10:39.944Z,56.96
2023-08-07T23:13:42.079Z,58.75
2023-08-07T23:16:45.631Z,59.34
2023-08-07T23:19:47.991Z,59.93
2023-08-07T23:22:50.137Z,60.08
2023-08-07T23:25:52.352Z,58.92
2023-08-07T23:28:54.655Z,60.54
2023-08-07T23:31:57.077Z,59.05
2023-08-07T23:34:59.634Z,59.99
2023-08-07T23:38:01.782Z,59.33
2023-08-07T23:41:06.069Z,59.34
2023-08-07T23:44:08.147Z,60.84
2023-08-07T23:47:10.602Z,62.88
2023-08-07T23:50:12.809Z,62.56
2023-08-07T23:53:14.913Z,62.06
2023-08-07T23:56:17.262Z,60.58
2023-08-07T23:59:19.656Z,60.72
